Seadream 1 — C6PW8 — position and weather

sailwx.info

Track history (hours):
 
Tides and Currents Weather Stations Pressure Air Temp Water Temp Dewpoint Dewpoint Depression Visibility Wind Speed Wind Dir Waves Ship Positions

Seadream 1

Last reported at 2016-May-27 02:10 UTC. Time now 2016-May-27 12:22 UTC.
Position N 43°09' E 007°17'.

Length 105 m; draft 4.3 m.

Type: Ship. MMSI: 308908000.

Date/timePositionNaut miles runAvg speedWind from/ knotsBaromVisibWave heightAir tempDewpointWater temp
2016-May-27 02:10N 43°09' E 007°17'5 7.5
2016-May-27 01:31N 43°08' E 007°24'33 8.4
2016-May-26 21:33N 42°59' E 008°08'1310.3
2016-May-26 20:18N 42°55' E 008°25'1210.4
2016-May-26 19:06N 42°52' E 008°41'16 9.5
2016-May-26 17:23N 42°47' E 009°02'8 9.5
2016-May-26 16:33N 42°45' E 009°13'10 0.8
2016-May-26 04:23N 42°55' E 009°18'7 8.3
2016-May-26 03:33N 43°01' E 009°19'16 7.7
2016-May-26 01:31N 43°16' E 009°27'9 7.5
2016-May-26 00:21N 43°24' E 009°31'6 7.8
2016-May-25 23:32N 43°30' E 009°35'8 8.1
2016-May-25 22:33N 43°37' E 009°39'9 8.6
2016-May-25 21:33N 43°45' E 009°43'10 9.7
2016-May-25 20:33N 43°54' E 009°48'9 9.2
2016-May-25 19:33N 44°03' E 009°51'0 0.5
2016-May-25 18:32N 44°03' E 009°51'0 0.0
2016-May-25 17:33N 44°03' E 009°51'0 0.0
2016-May-25 16:28N 44°03' E 009°51'0 0.0
2016-May-25 15:31N 44°03' E 009°51'0 0.0
2016-May-25 14:32N 44°03' E 009°51'0 0.0
2016-May-25 13:33N 44°03' E 009°51'0 0.0
2016-May-25 12:33N 44°03' E 009°51'0 0.0
2016-May-25 11:31N 44°03' E 009°51'0 0.0
2016-May-25 10:32N 44°03' E 009°51'0 0.0
2016-May-25 09:32N 44°03' E 009°51'0 0.0
2016-May-25 08:31N 44°03' E 009°51'0 0.0
2016-May-25 07:32N 44°03' E 009°51'0 0.0
2016-May-25 06:33N 44°03' E 009°51'0 0.0
2016-May-25 05:33N 44°03' E 009°51'5 5.3
2016-May-25 04:33N 43°60' E 009°56'5 5.2
2016-May-25 03:34N 43°55' E 009°58'4 4.4
2016-May-25 02:33N 43°51' E 010°00'3 3.5
2016-May-25 01:33N 43°47' E 010°02'3 3.4
2016-May-25 00:33N 43°44' E 010°03'3 3.4
2016-May-24 23:34N 43°41' E 010°05'3 3.4
2016-May-24 22:34N 43°37' E 010°05'4 3.7
2016-May-24 21:33N 43°34' E 010°05'4 3.9
2016-May-24 20:34N 43°31' E 010°01'3 3.5
2016-May-24 19:34N 43°29' E 010°04'4 3.7
2016-May-24 18:33N 43°30' E 010°09'4 3.8
2016-May-24 17:34N 43°31' E 010°14'3 3.1
2016-May-24 16:31N 43°33' E 010°18'0 0.0
2016-May-24 15:31N 43°33' E 010°18'0 0.0
2016-May-24 14:32N 43°33' E 010°18'0 0.0
2016-May-24 13:33N 43°33' E 010°18'0 0.0
2016-May-24 12:33N 43°33' E 010°18'0 0.0
2016-May-24 11:25N 43°33' E 010°18'0 0.0
2016-May-24 10:32N 43°33' E 010°18'0 0.0
2016-May-24 09:32N 43°33' E 010°18'0 0.0
2016-May-24 08:33N 43°33' E 010°18'0 0.0
2016-May-24 07:31N 43°33' E 010°18'0 0.0
2016-May-24 06:31N 43°33' E 010°18'0 0.0
2016-May-24 05:26N 43°33' E 010°18'2 2.3
2016-May-24 04:33N 43°32' E 010°16'7 6.6
2016-May-24 03:34N 43°30' E 010°07'4 4.5
2016-May-24 02:34N 43°34' E 010°08'4 4.3
2016-May-24 01:34N 43°38' E 010°06'4 4.4
2016-May-24 00:34N 43°42' E 010°03'4 4.3
2016-May-23 23:34N 43°46' E 010°00'4 4.1
2016-May-23 22:34N 43°49' E 009°57'4 4.5
2016-May-23 21:34N 43°53' E 009°54'5 5.0
2016-May-23 20:34N 43°57' E 009°49'5 5.1
2016-May-23 19:34N 43°59' E 009°43'6 6.2
2016-May-23 18:34N 44°04' E 009°37'9 9.0
2016-May-23 17:34N 44°11' E 009°30'12 1.1
2016-May-23 06:10N 44°19' E 009°17'3 5.2
2016-May-23 05:33N 44°16' E 009°15'8 7.6
2016-May-23 04:33N 44°12' E 009°06'8 7.8
2016-May-23 03:33N 44°09' E 008°56'7 7.2
2016-May-23 02:33N 44°06' E 008°47'7 6.8
2016-May-23 01:33N 44°03' E 008°38'7 7.1
2016-May-23 00:33N 43°60' E 008°30'7 7.1
2016-May-22 23:33N 43°57' E 008°21'7 6.9
2016-May-22 22:33N 43°54' E 008°12'7 6.6
2016-May-22 21:30N 43°50' E 008°03'6 6.3
2016-May-22 20:33N 43°48' E 007°56'7 6.5
2016-May-22 19:33N 43°46' E 007°47'7 6.5
2016-May-22 18:32N 43°44' E 007°38'6 6.6
2016-May-22 17:33N 43°42' E 007°30'7 6.5
2016-May-22 16:33N 43°40' E 007°21'3 2.4
2016-May-22 15:08N 43°42' E 007°17'0 0.0
2016-May-22 14:26N 43°42' E 007°17'0 0.0
2016-May-22 13:21N 43°42' E 007°17'0 0.0
2016-May-22 12:22N 43°42' E 007°17'0 0.0
2016-May-22 11:17N 43°42' E 007°17'0 0.0
2016-May-22 10:29N 43°42' E 007°17'0 0.0
2016-May-22 09:30N 43°42' E 007°17'0 0.0
2016-May-22 08:30N 43°42' E 007°17'0 0.0
2016-May-22 07:31N 43°42' E 007°17'0 0.0
2016-May-22 06:26N 43°42' E 007°17'1 1.2
2016-May-22 05:33N 43°41' E 007°17'8 8.2
2016-May-22 04:33N 43°36' E 007°08'0 0.0
2016-May-22 03:31N 43°36' E 007°08'0 0.0
2016-May-22 02:32N 43°36' E 007°08'0 0.0
2016-May-22 01:27N 43°36' E 007°08'0 0.0
2016-May-22 00:33N 43°36' E 007°08'0 0.0
2016-May-21 23:22N 43°36' E 007°08'0 0.0
2016-May-21 22:29N 43°36' E 007°08'0 0.0
2016-May-21 21:29N 43°36' E 007°08'0 0.0
2016-May-21 20:32N 43°36' E 007°08'0 0.0
2016-May-21 19:33N 43°36' E 007°08'0 0.0
2016-May-21 18:31N 43°36' E 007°08'0 0.0
2016-May-21 17:28N 43°36' E 007°08'0 0.0
2016-May-21 16:23N 43°36' E 007°08'0 0.0
2016-May-21 15:32N 43°36' E 007°08'0 0.0
2016-May-21 14:33N 43°36' E 007°08'0 0.0
2016-May-21 13:31N 43°36' E 007°08'0 0.0
2016-May-21 12:31N 43°36' E 007°08'0 0.0
2016-May-21 11:29N 43°36' E 007°08'0 0.0
2016-May-21 10:33N 43°36' E 007°08'0 0.0
2016-May-21 09:33N 43°36' E 007°08'0 0.0
2016-May-21 08:31N 43°36' E 007°08'0 0.0
2016-May-21 07:32N 43°36' E 007°08'0 0.0
2016-May-21 06:34N 43°36' E 007°08'5 5.5
2016-May-21 05:34N 43°30' E 007°11'7 6.8
2016-May-21 04:34N 43°30' E 007°01'2 2.1
2016-May-21 03:32N 43°32' E 007°01'0 0.0
2016-May-21 02:33N 43°32' E 007°01'0 0.0
2016-May-21 01:31N 43°32' E 007°01'0 0.0
2016-May-21 00:31N 43°32' E 007°01'0 0.0
2016-May-20 23:32N 43°32' E 007°01'0 0.0
2016-May-20 22:27N 43°32' E 007°01'0 0.0
2016-May-20 21:33N 43°32' E 007°01'0 0.0
2016-May-20 20:31N 43°32' E 007°01'0 0.0
2016-May-20 19:32N 43°32' E 007°01'0 0.0
2016-May-20 18:27N 43°32' E 007°01'0 0.0
2016-May-20 17:32N 43°32' E 007°01'0 0.0
2016-May-20 16:33N 43°32' E 007°01'0 0.0
2016-May-20 15:33N 43°32' E 007°01'0 0.0
2016-May-20 14:16N 43°32' E 007°01'0 0.0
2016-May-20 13:31N 43°32' E 007°01'0 0.0
2016-May-20 12:32N 43°32' E 007°01'0 0.0
2016-May-20 11:12N 43°32' E 007°01'0 0.0
2016-May-20 10:33N 43°32' E 007°01'0 0.0
2016-May-20 09:31N 43°32' E 007°01'0 0.0
2016-May-20 07:32N 43°32' E 007°01'0 0.0
2016-May-20 06:30N 43°32' E 007°01'3 2.9
2016-May-20 05:32N 43°30' E 007°01'6 6.2
2016-May-20 04:33N 43°28' E 007°09'6 5.7
2016-May-20 03:32N 43°26' E 007°17'4 4.1
2016-May-20 02:32N 43°25' E 007°22'4 3.4
2016-May-20 01:30N 43°26' E 007°27'4 4.5
2016-May-20 00:33N 43°30' E 007°25'4 4.4
2016-May-19 23:33N 43°34' E 007°24'9 6.1
2016-May-19 22:10N 43°42' E 007°27'2 0.4
2016-May-19 16:28N 43°44' E 007°26'0 0.0
2016-May-19 12:13N 43°44' E 007°26'3 0.5
2016-May-19 06:33N 43°41' E 007°26'7 7.0
2016-May-19 05:33N 43°34' E 007°26'7 7.1
2016-May-19 04:34N 43°27' E 007°24'8 7.2
2016-May-19 03:29N 43°21' E 007°17'67 2.2
2016-May-17 21:33N 42°54' E 005°53'29 1.7
2016-May-17 04:32N 43°09' E 005°20'  
Track history (hours):
 
Tides and Currents Weather Stations Pressure Air Temp Water Temp Dewpoint Dewpoint Depression Visibility Wind Speed Wind Dir Waves Ship Positions

Seadream 1

Last reported at 2016-May-27 02:10 UTC. Time now 2016-May-27 12:22 UTC.
Position N 43°09' E 007°17'.

Length 105 m; draft 4.3 m.

Type: Ship. MMSI: 308908000.

Date/timePositionNaut miles runAvg speedWind from/ knotsBaromVisibWave heightAir tempDewpointWater temp
2016-May-27 02:10N 43°09' E 007°17'5 7.5
2016-May-27 01:31N 43°08' E 007°24'33 8.4
2016-May-26 21:33N 42°59' E 008°08'1310.3
2016-May-26 20:18N 42°55' E 008°25'1210.4
2016-May-26 19:06N 42°52' E 008°41'16 9.5
2016-May-26 17:23N 42°47' E 009°02'8 9.5
2016-May-26 16:33N 42°45' E 009°13'10 0.8
2016-May-26 04:23N 42°55' E 009°18'7 8.3
2016-May-26 03:33N 43°01' E 009°19'16 7.7
2016-May-26 01:31N 43°16' E 009°27'9 7.5
2016-May-26 00:21N 43°24' E 009°31'6 7.8
2016-May-25 23:32N 43°30' E 009°35'8 8.1
2016-May-25 22:33N 43°37' E 009°39'9 8.6
2016-May-25 21:33N 43°45' E 009°43'10 9.7
2016-May-25 20:33N 43°54' E 009°48'9 9.2
2016-May-25 19:33N 44°03' E 009°51'0 0.5
2016-May-25 18:32N 44°03' E 009°51'0 0.0
2016-May-25 17:33N 44°03' E 009°51'0 0.0
2016-May-25 16:28N 44°03' E 009°51'0 0.0
2016-May-25 15:31N 44°03' E 009°51'0 0.0
2016-May-25 14:32N 44°03' E 009°51'0 0.0
2016-May-25 13:33N 44°03' E 009°51'0 0.0
2016-May-25 12:33N 44°03' E 009°51'0 0.0
2016-May-25 11:31N 44°03' E 009°51'0 0.0
2016-May-25 10:32N 44°03' E 009°51'0 0.0
2016-May-25 09:32N 44°03' E 009°51'0 0.0
2016-May-25 08:31N 44°03' E 009°51'0 0.0
2016-May-25 07:32N 44°03' E 009°51'0 0.0
2016-May-25 06:33N 44°03' E 009°51'0 0.0
2016-May-25 05:33N 44°03' E 009°51'5 5.3
2016-May-25 04:33N 43°60' E 009°56'5 5.2
2016-May-25 03:34N 43°55' E 009°58'4 4.4
2016-May-25 02:33N 43°51' E 010°00'3 3.5
2016-May-25 01:33N 43°47' E 010°02'3 3.4
2016-May-25 00:33N 43°44' E 010°03'3 3.4
2016-May-24 23:34N 43°41' E 010°05'3 3.4
2016-May-24 22:34N 43°37' E 010°05'4 3.7
2016-May-24 21:33N 43°34' E 010°05'4 3.9
2016-May-24 20:34N 43°31' E 010°01'3 3.5
2016-May-24 19:34N 43°29' E 010°04'4 3.7
2016-May-24 18:33N 43°30' E 010°09'4 3.8
2016-May-24 17:34N 43°31' E 010°14'3 3.1
2016-May-24 16:31N 43°33' E 010°18'0 0.0
2016-May-24 15:31N 43°33' E 010°18'0 0.0
2016-May-24 14:32N 43°33' E 010°18'0 0.0
2016-May-24 13:33N 43°33' E 010°18'0 0.0
2016-May-24 12:33N 43°33' E 010°18'0 0.0
2016-May-24 11:25N 43°33' E 010°18'0 0.0
2016-May-24 10:32N 43°33' E 010°18'0 0.0
2016-May-24 09:32N 43°33' E 010°18'0 0.0
2016-May-24 08:33N 43°33' E 010°18'0 0.0
2016-May-24 07:31N 43°33' E 010°18'0 0.0
2016-May-24 06:31N 43°33' E 010°18'0 0.0
2016-May-24 05:26N 43°33' E 010°18'2 2.3
2016-May-24 04:33N 43°32' E 010°16'7 6.6
2016-May-24 03:34N 43°30' E 010°07'4 4.5
2016-May-24 02:34N 43°34' E 010°08'4 4.3
2016-May-24 01:34N 43°38' E 010°06'4 4.4
2016-May-24 00:34N 43°42' E 010°03'4 4.3
2016-May-23 23:34N 43°46' E 010°00'4 4.1
2016-May-23 22:34N 43°49' E 009°57'4 4.5
2016-May-23 21:34N 43°53' E 009°54'5 5.0
2016-May-23 20:34N 43°57' E 009°49'5 5.1
2016-May-23 19:34N 43°59' E 009°43'6 6.2
2016-May-23 18:34N 44°04' E 009°37'9 9.0
2016-May-23 17:34N 44°11' E 009°30'12 1.1
2016-May-23 06:10N 44°19' E 009°17'3 5.2
2016-May-23 05:33N 44°16' E 009°15'8 7.6
2016-May-23 04:33N 44°12' E 009°06'8 7.8
2016-May-23 03:33N 44°09' E 008°56'7 7.2
2016-May-23 02:33N 44°06' E 008°47'7 6.8
2016-May-23 01:33N 44°03' E 008°38'7 7.1
2016-May-23 00:33N 43°60' E 008°30'7 7.1
2016-May-22 23:33N 43°57' E 008°21'7 6.9
2016-May-22 22:33N 43°54' E 008°12'7 6.6
2016-May-22 21:30N 43°50' E 008°03'6 6.3
2016-May-22 20:33N 43°48' E 007°56'7 6.5
2016-May-22 19:33N 43°46' E 007°47'7 6.5
2016-May-22 18:32N 43°44' E 007°38'6 6.6
2016-May-22 17:33N 43°42' E 007°30'7 6.5
2016-May-22 16:33N 43°40' E 007°21'3 2.4
2016-May-22 15:08N 43°42' E 007°17'0 0.0
2016-May-22 14:26N 43°42' E 007°17'0 0.0
2016-May-22 13:21N 43°42' E 007°17'0 0.0
2016-May-22 12:22N 43°42' E 007°17'0 0.0
2016-May-22 11:17N 43°42' E 007°17'0 0.0
2016-May-22 10:29N 43°42' E 007°17'0 0.0
2016-May-22 09:30N 43°42' E 007°17'0 0.0
2016-May-22 08:30N 43°42' E 007°17'0 0.0
2016-May-22 07:31N 43°42' E 007°17'0 0.0
2016-May-22 06:26N 43°42' E 007°17'1 1.2
2016-May-22 05:33N 43°41' E 007°17'8 8.2
2016-May-22 04:33N 43°36' E 007°08'0 0.0
2016-May-22 03:31N 43°36' E 007°08'0 0.0
2016-May-22 02:32N 43°36' E 007°08'0 0.0
2016-May-22 01:27N 43°36' E 007°08'0 0.0
2016-May-22 00:33N 43°36' E 007°08'0 0.0
2016-May-21 23:22N 43°36' E 007°08'0 0.0
2016-May-21 22:29N 43°36' E 007°08'0 0.0
2016-May-21 21:29N 43°36' E 007°08'0 0.0
2016-May-21 20:32N 43°36' E 007°08'0 0.0
2016-May-21 19:33N 43°36' E 007°08'0 0.0
2016-May-21 18:31N 43°36' E 007°08'0 0.0
2016-May-21 17:28N 43°36' E 007°08'0 0.0
2016-May-21 16:23N 43°36' E 007°08'0 0.0
2016-May-21 15:32N 43°36' E 007°08'0 0.0
2016-May-21 14:33N 43°36' E 007°08'0 0.0
2016-May-21 13:31N 43°36' E 007°08'0 0.0
2016-May-21 12:31N 43°36' E 007°08'0 0.0
2016-May-21 11:29N 43°36' E 007°08'0 0.0
2016-May-21 10:33N 43°36' E 007°08'0 0.0
2016-May-21 09:33N 43°36' E 007°08'0 0.0
2016-May-21 08:31N 43°36' E 007°08'0 0.0
2016-May-21 07:32N 43°36' E 007°08'0 0.0
2016-May-21 06:34N 43°36' E 007°08'5 5.5
2016-May-21 05:34N 43°30' E 007°11'7 6.8
2016-May-21 04:34N 43°30' E 007°01'2 2.1
2016-May-21 03:32N 43°32' E 007°01'0 0.0
2016-May-21 02:33N 43°32' E 007°01'0 0.0
2016-May-21 01:31N 43°32' E 007°01'0 0.0
2016-May-21 00:31N 43°32' E 007°01'0 0.0
2016-May-20 23:32N 43°32' E 007°01'0 0.0
2016-May-20 22:27N 43°32' E 007°01'0 0.0
2016-May-20 21:33N 43°32' E 007°01'0 0.0
2016-May-20 20:31N 43°32' E 007°01'0 0.0
2016-May-20 19:32N 43°32' E 007°01'0 0.0
2016-May-20 18:27N 43°32' E 007°01'0 0.0
2016-May-20 17:32N 43°32' E 007°01'0 0.0
2016-May-20 16:33N 43°32' E 007°01'0 0.0
2016-May-20 15:33N 43°32' E 007°01'0 0.0
2016-May-20 14:16N 43°32' E 007°01'0 0.0
2016-May-20 13:31N 43°32' E 007°01'0 0.0
2016-May-20 12:32N 43°32' E 007°01'0 0.0
2016-May-20 11:12N 43°32' E 007°01'0 0.0
2016-May-20 10:33N 43°32' E 007°01'0 0.0
2016-May-20 09:31N 43°32' E 007°01'0 0.0
2016-May-20 07:32N 43°32' E 007°01'0 0.0
2016-May-20 06:30N 43°32' E 007°01'3 2.9
2016-May-20 05:32N 43°30' E 007°01'6 6.2
2016-May-20 04:33N 43°28' E 007°09'6 5.7
2016-May-20 03:32N 43°26' E 007°17'4 4.1
2016-May-20 02:32N 43°25' E 007°22'4 3.4
2016-May-20 01:30N 43°26' E 007°27'4 4.5
2016-May-20 00:33N 43°30' E 007°25'4 4.4
2016-May-19 23:33N 43°34' E 007°24'9 6.1
2016-May-19 22:10N 43°42' E 007°27'2 0.4
2016-May-19 16:28N 43°44' E 007°26'0 0.0
2016-May-19 12:13N 43°44' E 007°26'3 0.5
2016-May-19 06:33N 43°41' E 007°26'7 7.0
2016-May-19 05:33N 43°34' E 007°26'7 7.1
2016-May-19 04:34N 43°27' E 007°24'8 7.2
2016-May-19 03:29N 43°21' E 007°17'67 2.2
2016-May-17 21:33N 42°54' E 005°53'29 1.7
2016-May-17 04:32N 43°09' E 005°20'  

Dump ship's entire track history